<?xml version="1.0" encoding="UTF-8" standalone="no" ?>
<gpx xmlns="http://www.topografix.com/GPX/1/1" xmlns:xsi="http://www.w3.org/2001/XMLSchema-instance" xsi:schemaLocation="http://www.topografix.com/GPX/1/1 http://www.topografix.com/GPX/1/1/gpx.xsd" version="1.1" creator="VisuGPX - https://www.visugpx.com">
  <metadata>
    <name>Pic de Chateau Renard</name>
    <desc><![CDATA[Pic de Chateau Renard depuis St Véran]]></desc>
  </metadata>
  <trk>
    <name><![CDATA[2017-01-07 09:30]]></name>
    <desc><![CDATA[<p>Heure de départ: 01/07/2017 09:30</p><p>Heure d'arrivée: 01/07/2017 15:18</p><p>Distance: 9,7 km (05:47)</p><p>Temps déplacement: 02:37</p><p>Vitesse moyenne: 1,68 km/h</p><p>Vitesse moyenne mouv.: 3,69 km/h</p><p>Vitesse Max.: 24,53km/h</p><p>Altitude minimale: 2017 m</p><p>Altitude maximale: 2994 m</p><p>Vitesse de montée: 265 m/h</p><p>Vitesse de descente: -450,7 m/h</p><p>Gain d'altitude: 971 m</p><p>Perte d'altitude: -956 m</p><p>Temps de montée: 03:39</p><p>Temps de descente: 02:07</p><hr align="center" width="480" style="height: 2px; width: 517px"/>]]></desc>
    <trkseg>
      <trkpt lat="44.69565" lon="6.87462">
        <ele>2017.64</ele>
        <time>2017-01-07T08:30:36Z</time>
      </trkpt>
      <trkpt lat="44.69263" lon="6.87815">
        <ele>2057.64</ele>
        <time>2017-01-07T08:50:40Z</time>
      </trkpt>
      <trkpt lat="44.69244" lon="6.87815">
        <ele>2063.84</ele>
        <time>2017-01-07T08:51:33Z</time>
      </trkpt>
      <trkpt lat="44.69231" lon="6.87834">
        <ele>2063.66</ele>
        <time>2017-01-07T08:51:54Z</time>
      </trkpt>
      <trkpt lat="44.69222" lon="6.87855">
        <ele>2067.64</ele>
        <time>2017-01-07T08:52:14Z</time>
      </trkpt>
      <trkpt lat="44.69209" lon="6.87875">
        <ele>2069.44</ele>
        <time>2017-01-07T08:52:36Z</time>
      </trkpt>
      <trkpt lat="44.69198" lon="6.87896">
        <ele>2069.64</ele>
        <time>2017-01-07T08:53:01Z</time>
      </trkpt>
      <trkpt lat="44.69184" lon="6.87912">
        <ele>2069.83</ele>
        <time>2017-01-07T08:53:22Z</time>
      </trkpt>
      <trkpt lat="44.69168" lon="6.87923">
        <ele>2074.46</ele>
        <time>2017-01-07T08:53:44Z</time>
      </trkpt>
      <trkpt lat="44.69153" lon="6.87939">
        <ele>2076.64</ele>
        <time>2017-01-07T08:54:04Z</time>
      </trkpt>
      <trkpt lat="44.69142" lon="6.87959">
        <ele>2074.6</ele>
        <time>2017-01-07T08:54:26Z</time>
      </trkpt>
      <trkpt lat="44.69128" lon="6.87975">
        <ele>2078.6</ele>
        <time>2017-01-07T08:54:51Z</time>
      </trkpt>
      <trkpt lat="44.69115" lon="6.87995">
        <ele>2078.44</ele>
        <time>2017-01-07T08:55:16Z</time>
      </trkpt>
      <trkpt lat="44.69104" lon="6.88016">
        <ele>2080.6</ele>
        <time>2017-01-07T08:57:59Z</time>
      </trkpt>
      <trkpt lat="44.691" lon="6.88041">
        <ele>2082.56</ele>
        <time>2017-01-07T08:58:58Z</time>
      </trkpt>
      <trkpt lat="44.6909" lon="6.88062">
        <ele>2084.64</ele>
        <time>2017-01-07T08:59:40Z</time>
      </trkpt>
      <trkpt lat="44.69083" lon="6.88085">
        <ele>2086.64</ele>
        <time>2017-01-07T09:00:08Z</time>
      </trkpt>
      <trkpt lat="44.69075" lon="6.88109">
        <ele>2089.59</ele>
        <time>2017-01-07T09:00:29Z</time>
      </trkpt>
      <trkpt lat="44.6907" lon="6.88134">
        <ele>2088.64</ele>
        <time>2017-01-07T09:00:55Z</time>
      </trkpt>
      <trkpt lat="44.69068" lon="6.88161">
        <ele>2090.64</ele>
        <time>2017-01-07T09:01:21Z</time>
      </trkpt>
      <trkpt lat="44.69066" lon="6.88187">
        <ele>2094</ele>
        <time>2017-01-07T09:01:41Z</time>
      </trkpt>
      <trkpt lat="44.69065" lon="6.88212">
        <ele>2092.64</ele>
        <time>2017-01-07T09:02:05Z</time>
      </trkpt>
      <trkpt lat="44.6906" lon="6.88238">
        <ele>2090.44</ele>
        <time>2017-01-07T09:02:32Z</time>
      </trkpt>
      <trkpt lat="44.69048" lon="6.88257">
        <ele>2099.04</ele>
        <time>2017-01-07T09:02:50Z</time>
      </trkpt>
      <trkpt lat="44.69035" lon="6.88274">
        <ele>2102.59</ele>
        <time>2017-01-07T09:03:11Z</time>
      </trkpt>
      <trkpt lat="44.69025" lon="6.88296">
        <ele>2104.83</ele>
        <time>2017-01-07T09:03:35Z</time>
      </trkpt>
      <trkpt lat="44.69012" lon="6.88314">
        <ele>2111.83</ele>
        <time>2017-01-07T09:03:54Z</time>
      </trkpt>
      <trkpt lat="44.68997" lon="6.88333">
        <ele>2108.45</ele>
        <time>2017-01-07T09:04:19Z</time>
      </trkpt>
      <trkpt lat="44.68979" lon="6.88339">
        <ele>2110.65</ele>
        <time>2017-01-07T09:04:44Z</time>
      </trkpt>
      <trkpt lat="44.68961" lon="6.88346">
        <ele>2111.64</ele>
        <time>2017-01-07T09:05:09Z</time>
      </trkpt>
      <trkpt lat="44.68944" lon="6.88355">
        <ele>2113.8</ele>
        <time>2017-01-07T09:05:29Z</time>
      </trkpt>
      <trkpt lat="44.68929" lon="6.88368">
        <ele>2113.68</ele>
        <time>2017-01-07T09:05:49Z</time>
      </trkpt>
      <trkpt lat="44.68937" lon="6.88391">
        <ele>2126.84</ele>
        <time>2017-01-07T09:07:09Z</time>
      </trkpt>
      <trkpt lat="44.6893" lon="6.88415">
        <ele>2132.64</ele>
        <time>2017-01-07T09:07:59Z</time>
      </trkpt>
      <trkpt lat="44.68924" lon="6.88439">
        <ele>2137.63</ele>
        <time>2017-01-07T09:08:33Z</time>
      </trkpt>
      <trkpt lat="44.68919" lon="6.88464">
        <ele>2136.4</ele>
        <time>2017-01-07T09:09:26Z</time>
      </trkpt>
      <trkpt lat="44.68906" lon="6.88481">
        <ele>2139.63</ele>
        <time>2017-01-07T09:09:53Z</time>
      </trkpt>
      <trkpt lat="44.6889" lon="6.88493">
        <ele>2142.63</ele>
        <time>2017-01-07T09:10:25Z</time>
      </trkpt>
      <trkpt lat="44.68874" lon="6.88505">
        <ele>2148.81</ele>
        <time>2017-01-07T09:10:57Z</time>
      </trkpt>
      <trkpt lat="44.68868" lon="6.8853">
        <ele>2145.84</ele>
        <time>2017-01-07T09:11:32Z</time>
      </trkpt>
      <trkpt lat="44.68859" lon="6.88552">
        <ele>2150.44</ele>
        <time>2017-01-07T09:12:11Z</time>
      </trkpt>
      <trkpt lat="44.68846" lon="6.88571">
        <ele>2162.44</ele>
        <time>2017-01-07T09:12:46Z</time>
      </trkpt>
      <trkpt lat="44.68837" lon="6.88593">
        <ele>2166.44</ele>
        <time>2017-01-07T09:13:22Z</time>
      </trkpt>
      <trkpt lat="44.68853" lon="6.88607">
        <ele>2177.4</ele>
        <time>2017-01-07T09:14:23Z</time>
      </trkpt>
      <trkpt lat="44.68863" lon="6.88628">
        <ele>2182.64</ele>
        <time>2017-01-07T09:15:12Z</time>
      </trkpt>
      <trkpt lat="44.68857" lon="6.88653">
        <ele>2182.88</ele>
        <time>2017-01-07T09:15:49Z</time>
      </trkpt>
      <trkpt lat="44.68853" lon="6.88678">
        <ele>2186.44</ele>
        <time>2017-01-07T09:16:22Z</time>
      </trkpt>
      <trkpt lat="44.68846" lon="6.88702">
        <ele>2191.44</ele>
        <time>2017-01-07T09:17:07Z</time>
      </trkpt>
      <trkpt lat="44.68839" lon="6.88726">
        <ele>2188.64</ele>
        <time>2017-01-07T09:17:47Z</time>
      </trkpt>
      <trkpt lat="44.68821" lon="6.88726">
        <ele>2197.45</ele>
        <time>2017-01-07T09:18:31Z</time>
      </trkpt>
      <trkpt lat="44.68803" lon="6.88733">
        <ele>2196.44</ele>
        <time>2017-01-07T09:19:13Z</time>
      </trkpt>
      <trkpt lat="44.68788" lon="6.88747">
        <ele>2197.68</ele>
        <time>2017-01-07T09:19:40Z</time>
      </trkpt>
      <trkpt lat="44.688" lon="6.88767">
        <ele>2204.84</ele>
        <time>2017-01-07T09:20:15Z</time>
      </trkpt>
      <trkpt lat="44.68811" lon="6.88786">
        <ele>2208.64</ele>
        <time>2017-01-07T09:20:57Z</time>
      </trkpt>
      <trkpt lat="44.68804" lon="6.88809">
        <ele>2213.2</ele>
        <time>2017-01-07T09:21:49Z</time>
      </trkpt>
      <trkpt lat="44.68787" lon="6.88823">
        <ele>2215.84</ele>
        <time>2017-01-07T09:22:20Z</time>
      </trkpt>
      <trkpt lat="44.68773" lon="6.88839">
        <ele>2224.63</ele>
        <time>2017-01-07T09:23:02Z</time>
      </trkpt>
      <trkpt lat="44.68764" lon="6.88861">
        <ele>2229.44</ele>
        <time>2017-01-07T09:24:10Z</time>
      </trkpt>
      <trkpt lat="44.68777" lon="6.88879">
        <ele>2235.59</ele>
        <time>2017-01-07T09:24:44Z</time>
      </trkpt>
      <trkpt lat="44.68776" lon="6.88905">
        <ele>2243.63</ele>
        <time>2017-01-07T09:25:45Z</time>
      </trkpt>
      <trkpt lat="44.68766" lon="6.88927">
        <ele>2247.6</ele>
        <time>2017-01-07T09:26:51Z</time>
      </trkpt>
      <trkpt lat="44.6875" lon="6.88937">
        <ele>2250.65</ele>
        <time>2017-01-07T09:27:47Z</time>
      </trkpt>
      <trkpt lat="44.68745" lon="6.88962">
        <ele>2263.48</ele>
        <time>2017-01-07T09:28:58Z</time>
      </trkpt>
      <trkpt lat="44.68751" lon="6.88985">
        <ele>2270.47</ele>
        <time>2017-01-07T09:30:01Z</time>
      </trkpt>
      <trkpt lat="44.68762" lon="6.89005">
        <ele>2274.65</ele>
        <time>2017-01-07T09:30:36Z</time>
      </trkpt>
      <trkpt lat="44.68779" lon="6.89016">
        <ele>2275.63</ele>
        <time>2017-01-07T09:31:21Z</time>
      </trkpt>
      <trkpt lat="44.68795" lon="6.89029">
        <ele>2286.6</ele>
        <time>2017-01-07T09:32:19Z</time>
      </trkpt>
      <trkpt lat="44.68788" lon="6.89053">
        <ele>2292.84</ele>
        <time>2017-01-07T09:33:01Z</time>
      </trkpt>
      <trkpt lat="44.6878" lon="6.89077">
        <ele>2296.82</ele>
        <time>2017-01-07T09:33:36Z</time>
      </trkpt>
      <trkpt lat="44.68768" lon="6.89097">
        <ele>2297.6</ele>
        <time>2017-01-07T09:34:12Z</time>
      </trkpt>
      <trkpt lat="44.68764" lon="6.89122">
        <ele>2302.66</ele>
        <time>2017-01-07T09:34:45Z</time>
      </trkpt>
      <trkpt lat="44.68759" lon="6.89147">
        <ele>2307.67</ele>
        <time>2017-01-07T09:35:24Z</time>
      </trkpt>
      <trkpt lat="44.6876" lon="6.89172">
        <ele>2312.48</ele>
        <time>2017-01-07T09:47:16Z</time>
      </trkpt>
      <trkpt lat="44.68759" lon="6.89198">
        <ele>2316.76</ele>
        <time>2017-01-07T09:47:53Z</time>
      </trkpt>
      <trkpt lat="44.68763" lon="6.89224">
        <ele>2316.46</ele>
        <time>2017-01-07T09:48:35Z</time>
      </trkpt>
      <trkpt lat="44.68763" lon="6.8925">
        <ele>2311.28</ele>
        <time>2017-01-07T09:49:06Z</time>
      </trkpt>
      <trkpt lat="44.68756" lon="6.89276">
        <ele>2315.24</ele>
        <time>2017-01-07T09:49:42Z</time>
      </trkpt>
      <trkpt lat="44.68762" lon="6.89301">
        <ele>2317.84</ele>
        <time>2017-01-07T09:50:15Z</time>
      </trkpt>
      <trkpt lat="44.68761" lon="6.89335">
        <ele>2336.91</ele>
        <time>2017-01-07T09:51:22Z</time>
      </trkpt>
      <trkpt lat="44.68779" lon="6.89332">
        <ele>2336.63</ele>
        <time>2017-01-07T09:52:20Z</time>
      </trkpt>
      <trkpt lat="44.68776" lon="6.89357">
        <ele>2347.76</ele>
        <time>2017-01-07T09:53:10Z</time>
      </trkpt>
      <trkpt lat="44.68764" lon="6.89378">
        <ele>2353.41</ele>
        <time>2017-01-07T09:53:53Z</time>
      </trkpt>
      <trkpt lat="44.6876" lon="6.89403">
        <ele>2356.63</ele>
        <time>2017-01-07T09:54:38Z</time>
      </trkpt>
      <trkpt lat="44.68751" lon="6.89426">
        <ele>2360.39</ele>
        <time>2017-01-07T09:55:32Z</time>
      </trkpt>
      <trkpt lat="44.68741" lon="6.89448">
        <ele>2365.44</ele>
        <time>2017-01-07T09:56:06Z</time>
      </trkpt>
      <trkpt lat="44.68756" lon="6.89462">
        <ele>2378.61</ele>
        <time>2017-01-07T09:57:45Z</time>
      </trkpt>
      <trkpt lat="44.68774" lon="6.89469">
        <ele>2373.69</ele>
        <time>2017-01-07T09:58:26Z</time>
      </trkpt>
      <trkpt lat="44.68764" lon="6.8949">
        <ele>2384.44</ele>
        <time>2017-01-07T09:59:02Z</time>
      </trkpt>
      <trkpt lat="44.68758" lon="6.89514">
        <ele>2390.8</ele>
        <time>2017-01-07T09:59:42Z</time>
      </trkpt>
      <trkpt lat="44.68749" lon="6.89539">
        <ele>2396.8</ele>
        <time>2017-01-07T10:00:53Z</time>
      </trkpt>
      <trkpt lat="44.68734" lon="6.89554">
        <ele>2401.39</ele>
        <time>2017-01-07T10:01:20Z</time>
      </trkpt>
      <trkpt lat="44.68726" lon="6.89578">
        <ele>2407.64</ele>
        <time>2017-01-07T10:02:09Z</time>
      </trkpt>
      <trkpt lat="44.6873" lon="6.89603">
        <ele>2412.63</ele>
        <time>2017-01-07T10:02:51Z</time>
      </trkpt>
      <trkpt lat="44.6873" lon="6.89629">
        <ele>2419.48</ele>
        <time>2017-01-07T10:03:40Z</time>
      </trkpt>
      <trkpt lat="44.68739" lon="6.89651">
        <ele>2427.58</ele>
        <time>2017-01-07T10:04:59Z</time>
      </trkpt>
      <trkpt lat="44.68757" lon="6.89657">
        <ele>2439.8</ele>
        <time>2017-01-07T10:06:16Z</time>
      </trkpt>
      <trkpt lat="44.68775" lon="6.89664">
        <ele>2435.64</ele>
        <time>2017-01-07T10:06:51Z</time>
      </trkpt>
      <trkpt lat="44.68771" lon="6.89689">
        <ele>2444.76</ele>
        <time>2017-01-07T10:07:48Z</time>
      </trkpt>
      <trkpt lat="44.6879" lon="6.89687">
        <ele>2442.85</ele>
        <time>2017-01-07T10:08:42Z</time>
      </trkpt>
      <trkpt lat="44.68809" lon="6.89686">
        <ele>2456.04</ele>
        <time>2017-01-07T10:09:48Z</time>
      </trkpt>
      <trkpt lat="44.68824" lon="6.89701">
        <ele>2464.6</ele>
        <time>2017-01-07T10:11:20Z</time>
      </trkpt>
      <trkpt lat="44.68823" lon="6.89727">
        <ele>2475.63</ele>
        <time>2017-01-07T10:12:32Z</time>
      </trkpt>
      <trkpt lat="44.68842" lon="6.89738">
        <ele>2487.04</ele>
        <time>2017-01-07T10:16:21Z</time>
      </trkpt>
      <trkpt lat="44.68851" lon="6.8976">
        <ele>2494.87</ele>
        <time>2017-01-07T10:25:24Z</time>
      </trkpt>
      <trkpt lat="44.68865" lon="6.89777">
        <ele>2498.64</ele>
        <time>2017-01-07T10:26:10Z</time>
      </trkpt>
      <trkpt lat="44.68872" lon="6.89801">
        <ele>2505.04</ele>
        <time>2017-01-07T10:26:54Z</time>
      </trkpt>
      <trkpt lat="44.68873" lon="6.89826">
        <ele>2510.41</ele>
        <time>2017-01-07T10:27:34Z</time>
      </trkpt>
      <trkpt lat="44.68878" lon="6.89852">
        <ele>2517.83</ele>
        <time>2017-01-07T10:28:08Z</time>
      </trkpt>
      <trkpt lat="44.68868" lon="6.89873">
        <ele>2523.64</ele>
        <time>2017-01-07T10:29:20Z</time>
      </trkpt>
      <trkpt lat="44.68885" lon="6.89889">
        <ele>2524.04</ele>
        <time>2017-01-07T10:30:39Z</time>
      </trkpt>
      <trkpt lat="44.68894" lon="6.89912">
        <ele>2532.51</ele>
        <time>2017-01-07T10:31:54Z</time>
      </trkpt>
      <trkpt lat="44.6888" lon="6.89929">
        <ele>2536.67</ele>
        <time>2017-01-07T10:32:47Z</time>
      </trkpt>
      <trkpt lat="44.689" lon="6.89923">
        <ele>2547.44</ele>
        <time>2017-01-07T10:33:59Z</time>
      </trkpt>
      <trkpt lat="44.68896" lon="6.89949">
        <ele>2550.64</ele>
        <time>2017-01-07T10:35:02Z</time>
      </trkpt>
      <trkpt lat="44.68921" lon="6.90139">
        <ele>2591.08</ele>
        <time>2017-01-07T10:42:09Z</time>
      </trkpt>
      <trkpt lat="44.68918" lon="6.90165">
        <ele>2604.46</ele>
        <time>2017-01-07T10:43:01Z</time>
      </trkpt>
      <trkpt lat="44.68923" lon="6.90189">
        <ele>2604.83</ele>
        <time>2017-01-07T10:43:49Z</time>
      </trkpt>
      <trkpt lat="44.68927" lon="6.90216">
        <ele>2612.88</ele>
        <time>2017-01-07T10:45:15Z</time>
      </trkpt>
      <trkpt lat="44.68943" lon="6.90229">
        <ele>2613.37</ele>
        <time>2017-01-07T10:46:01Z</time>
      </trkpt>
      <trkpt lat="44.68953" lon="6.90252">
        <ele>2624.8</ele>
        <time>2017-01-07T10:47:02Z</time>
      </trkpt>
      <trkpt lat="44.68968" lon="6.90272">
        <ele>2629.84</ele>
        <time>2017-01-07T10:48:17Z</time>
      </trkpt>
      <trkpt lat="44.68971" lon="6.90298">
        <ele>2632.84</ele>
        <time>2017-01-07T10:49:09Z</time>
      </trkpt>
      <trkpt lat="44.68989" lon="6.90305">
        <ele>2636.6</ele>
        <time>2017-01-07T10:49:51Z</time>
      </trkpt>
      <trkpt lat="44.68997" lon="6.90328">
        <ele>2646.6</ele>
        <time>2017-01-07T10:50:47Z</time>
      </trkpt>
      <trkpt lat="44.69006" lon="6.9035">
        <ele>2655.68</ele>
        <time>2017-01-07T10:51:37Z</time>
      </trkpt>
      <trkpt lat="44.69094" lon="6.90468">
        <ele>2693.63</ele>
        <time>2017-01-07T10:58:30Z</time>
      </trkpt>
      <trkpt lat="44.69111" lon="6.90478">
        <ele>2708.43</ele>
        <time>2017-01-07T10:59:46Z</time>
      </trkpt>
      <trkpt lat="44.69123" lon="6.90498">
        <ele>2712.75</ele>
        <time>2017-01-07T11:01:20Z</time>
      </trkpt>
      <trkpt lat="44.6913" lon="6.90522">
        <ele>2722.8</ele>
        <time>2017-01-07T11:02:01Z</time>
      </trkpt>
      <trkpt lat="44.69144" lon="6.90538">
        <ele>2728.67</ele>
        <time>2017-01-07T11:03:02Z</time>
      </trkpt>
      <trkpt lat="44.69153" lon="6.9056">
        <ele>2737.44</ele>
        <time>2017-01-07T11:03:54Z</time>
      </trkpt>
      <trkpt lat="44.69169" lon="6.90573">
        <ele>2741.87</ele>
        <time>2017-01-07T11:04:47Z</time>
      </trkpt>
      <trkpt lat="44.69181" lon="6.90592">
        <ele>2748.4</ele>
        <time>2017-01-07T11:05:38Z</time>
      </trkpt>
      <trkpt lat="44.69214" lon="6.90641">
        <ele>2766.07</ele>
        <time>2017-01-07T11:16:58Z</time>
      </trkpt>
      <trkpt lat="44.69224" lon="6.9062">
        <ele>2766.64</ele>
        <time>2017-01-07T11:20:37Z</time>
      </trkpt>
      <trkpt lat="44.69239" lon="6.90605">
        <ele>2770.64</ele>
        <time>2017-01-07T11:21:08Z</time>
      </trkpt>
      <trkpt lat="44.69257" lon="6.90607">
        <ele>2774.44</ele>
        <time>2017-01-07T11:21:57Z</time>
      </trkpt>
      <trkpt lat="44.69275" lon="6.90609">
        <ele>2780.79</ele>
        <time>2017-01-07T11:22:43Z</time>
      </trkpt>
      <trkpt lat="44.69293" lon="6.906">
        <ele>2786.64</ele>
        <time>2017-01-07T11:23:35Z</time>
      </trkpt>
      <trkpt lat="44.69222" lon="6.90647">
        <ele>2786.88</ele>
        <time>2017-01-07T11:24:05Z</time>
      </trkpt>
      <trkpt lat="44.69247" lon="6.90635">
        <ele>2777.89</ele>
        <time>2017-01-07T11:24:06Z</time>
      </trkpt>
      <trkpt lat="44.6927" lon="6.90631">
        <ele>2783.16</ele>
        <time>2017-01-07T11:24:11Z</time>
      </trkpt>
      <trkpt lat="44.69293" lon="6.9062">
        <ele>2788.99</ele>
        <time>2017-01-07T11:24:19Z</time>
      </trkpt>
      <trkpt lat="44.69311" lon="6.90616">
        <ele>2789.83</ele>
        <time>2017-01-07T11:24:41Z</time>
      </trkpt>
      <trkpt lat="44.69327" lon="6.90627">
        <ele>2798.63</ele>
        <time>2017-01-07T11:25:41Z</time>
      </trkpt>
      <trkpt lat="44.69398" lon="6.90703">
        <ele>2838.47</ele>
        <time>2017-01-07T11:34:50Z</time>
      </trkpt>
      <trkpt lat="44.69414" lon="6.90691">
        <ele>2843.64</ele>
        <time>2017-01-07T11:36:48Z</time>
      </trkpt>
      <trkpt lat="44.6943" lon="6.90679">
        <ele>2850.44</ele>
        <time>2017-01-07T11:37:52Z</time>
      </trkpt>
      <trkpt lat="44.69436" lon="6.90703">
        <ele>2853.68</ele>
        <time>2017-01-07T11:38:57Z</time>
      </trkpt>
      <trkpt lat="44.69441" lon="6.90728">
        <ele>2859.64</ele>
        <time>2017-01-07T11:39:50Z</time>
      </trkpt>
      <trkpt lat="44.69449" lon="6.90751">
        <ele>2863.6</ele>
        <time>2017-01-07T11:40:47Z</time>
      </trkpt>
      <trkpt lat="44.69455" lon="6.90775">
        <ele>2869.43</ele>
        <time>2017-01-07T11:41:33Z</time>
      </trkpt>
      <trkpt lat="44.69461" lon="6.908">
        <ele>2875.44</ele>
        <time>2017-01-07T11:42:29Z</time>
      </trkpt>
      <trkpt lat="44.69467" lon="6.90824">
        <ele>2876.64</ele>
        <time>2017-01-07T11:43:22Z</time>
      </trkpt>
      <trkpt lat="44.6948" lon="6.90841">
        <ele>2880.63</ele>
        <time>2017-01-07T11:44:10Z</time>
      </trkpt>
      <trkpt lat="44.69495" lon="6.90855">
        <ele>2887.6</ele>
        <time>2017-01-07T11:45:07Z</time>
      </trkpt>
      <trkpt lat="44.69513" lon="6.90848">
        <ele>2892.67</ele>
        <time>2017-01-07T11:46:28Z</time>
      </trkpt>
      <trkpt lat="44.69529" lon="6.9086">
        <ele>2897.84</ele>
        <time>2017-01-07T11:47:04Z</time>
      </trkpt>
      <trkpt lat="44.69548" lon="6.90862">
        <ele>2896.71</ele>
        <time>2017-01-07T11:47:36Z</time>
      </trkpt>
      <trkpt lat="44.69566" lon="6.90858">
        <ele>2898.61</ele>
        <time>2017-01-07T11:48:28Z</time>
      </trkpt>
      <trkpt lat="44.6958" lon="6.90842">
        <ele>2899.84</ele>
        <time>2017-01-07T11:49:47Z</time>
      </trkpt>
      <trkpt lat="44.69593" lon="6.90822">
        <ele>2901.65</ele>
        <time>2017-01-07T11:50:14Z</time>
      </trkpt>
      <trkpt lat="44.69609" lon="6.9081">
        <ele>2905.83</ele>
        <time>2017-01-07T11:51:49Z</time>
      </trkpt>
      <trkpt lat="44.69618" lon="6.90788">
        <ele>2909.6</ele>
        <time>2017-01-07T11:53:19Z</time>
      </trkpt>
      <trkpt lat="44.69628" lon="6.90767">
        <ele>2914.43</ele>
        <time>2017-01-07T11:54:01Z</time>
      </trkpt>
      <trkpt lat="44.69644" lon="6.90755">
        <ele>2916.63</ele>
        <time>2017-01-07T11:54:39Z</time>
      </trkpt>
      <trkpt lat="44.69662" lon="6.90752">
        <ele>2921.64</ele>
        <time>2017-01-07T11:55:47Z</time>
      </trkpt>
      <trkpt lat="44.69679" lon="6.90742">
        <ele>2932.39</ele>
        <time>2017-01-07T11:56:35Z</time>
      </trkpt>
      <trkpt lat="44.69697" lon="6.90733">
        <ele>2934.64</ele>
        <time>2017-01-07T11:57:28Z</time>
      </trkpt>
      <trkpt lat="44.69715" lon="6.90727">
        <ele>2938.63</ele>
        <time>2017-01-07T11:59:03Z</time>
      </trkpt>
      <trkpt lat="44.69733" lon="6.90723">
        <ele>2941.6</ele>
        <time>2017-01-07T11:59:43Z</time>
      </trkpt>
      <trkpt lat="44.69751" lon="6.90728">
        <ele>2946</ele>
        <time>2017-01-07T12:01:09Z</time>
      </trkpt>
      <trkpt lat="44.69766" lon="6.90712">
        <ele>2946.79</ele>
        <time>2017-01-07T12:01:38Z</time>
      </trkpt>
      <trkpt lat="44.69784" lon="6.90706">
        <ele>2950.64</ele>
        <time>2017-01-07T12:02:26Z</time>
      </trkpt>
      <trkpt lat="44.69801" lon="6.90712">
        <ele>2956.64</ele>
        <time>2017-01-07T12:03:48Z</time>
      </trkpt>
      <trkpt lat="44.69815" lon="6.90694">
        <ele>2958.44</ele>
        <time>2017-01-07T12:04:35Z</time>
      </trkpt>
      <trkpt lat="44.69828" lon="6.90676">
        <ele>2965.6</ele>
        <time>2017-01-07T12:06:31Z</time>
      </trkpt>
      <trkpt lat="44.69867" lon="6.90724">
        <ele>2962.2</ele>
        <time>2017-01-07T12:06:45Z</time>
      </trkpt>
      <trkpt lat="44.69836" lon="6.90663">
        <ele>2974.55</ele>
        <time>2017-01-07T12:07:14Z</time>
      </trkpt>
      <trkpt lat="44.69851" lon="6.90646">
        <ele>2981.64</ele>
        <time>2017-01-07T12:08:55Z</time>
      </trkpt>
      <trkpt lat="44.69862" lon="6.90625">
        <ele>2985.84</ele>
        <time>2017-01-07T12:10:12Z</time>
      </trkpt>
      <trkpt lat="44.69879" lon="6.90635">
        <ele>2994.04</ele>
        <time>2017-01-07T13:06:19Z</time>
      </trkpt>
      <trkpt lat="44.6986" lon="6.9063">
        <ele>2989.26</ele>
        <time>2017-01-07T13:06:27Z</time>
      </trkpt>
      <trkpt lat="44.69847" lon="6.90647">
        <ele>2974.85</ele>
        <time>2017-01-07T13:07:08Z</time>
      </trkpt>
      <trkpt lat="44.69836" lon="6.90667">
        <ele>2956.55</ele>
        <time>2017-01-07T13:08:00Z</time>
      </trkpt>
      <trkpt lat="44.69827" lon="6.90692">
        <ele>2952.61</ele>
        <time>2017-01-07T13:08:07Z</time>
      </trkpt>
      <trkpt lat="44.69809" lon="6.90712">
        <ele>2948.29</ele>
        <time>2017-01-07T13:08:13Z</time>
      </trkpt>
      <trkpt lat="44.6979" lon="6.90704">
        <ele>2949.65</ele>
        <time>2017-01-07T13:10:59Z</time>
      </trkpt>
      <trkpt lat="44.69769" lon="6.90707">
        <ele>2945.85</ele>
        <time>2017-01-07T13:11:03Z</time>
      </trkpt>
      <trkpt lat="44.69755" lon="6.90724">
        <ele>2946.64</ele>
        <time>2017-01-07T13:11:10Z</time>
      </trkpt>
      <trkpt lat="44.69738" lon="6.90737">
        <ele>2942.69</ele>
        <time>2017-01-07T13:11:18Z</time>
      </trkpt>
      <trkpt lat="44.69726" lon="6.90717">
        <ele>2940.64</ele>
        <time>2017-01-07T13:11:24Z</time>
      </trkpt>
      <trkpt lat="44.69712" lon="6.90739">
        <ele>2934.65</ele>
        <time>2017-01-07T13:11:37Z</time>
      </trkpt>
      <trkpt lat="44.69692" lon="6.90749">
        <ele>2933.81</ele>
        <time>2017-01-07T13:11:45Z</time>
      </trkpt>
      <trkpt lat="44.69669" lon="6.90743">
        <ele>2923.66</ele>
        <time>2017-01-07T13:11:51Z</time>
      </trkpt>
      <trkpt lat="44.69653" lon="6.90755">
        <ele>2916.9</ele>
        <time>2017-01-07T13:11:58Z</time>
      </trkpt>
      <trkpt lat="44.69633" lon="6.90759">
        <ele>2913.89</ele>
        <time>2017-01-07T13:12:02Z</time>
      </trkpt>
      <trkpt lat="44.69617" lon="6.90775">
        <ele>2912.84</ele>
        <time>2017-01-07T13:12:05Z</time>
      </trkpt>
      <trkpt lat="44.69604" lon="6.90792">
        <ele>2910.88</ele>
        <time>2017-01-07T13:12:10Z</time>
      </trkpt>
      <trkpt lat="44.69586" lon="6.90798">
        <ele>2901.64</ele>
        <time>2017-01-07T13:12:19Z</time>
      </trkpt>
      <trkpt lat="44.69567" lon="6.90794">
        <ele>2899.08</ele>
        <time>2017-01-07T13:12:33Z</time>
      </trkpt>
      <trkpt lat="44.69548" lon="6.90799">
        <ele>2897.84</ele>
        <time>2017-01-07T13:12:37Z</time>
      </trkpt>
      <trkpt lat="44.69529" lon="6.908">
        <ele>2895.84</ele>
        <time>2017-01-07T13:14:11Z</time>
      </trkpt>
      <trkpt lat="44.69516" lon="6.90782">
        <ele>2892.88</ele>
        <time>2017-01-07T13:14:16Z</time>
      </trkpt>
      <trkpt lat="44.69507" lon="6.90759">
        <ele>2887.88</ele>
        <time>2017-01-07T13:14:22Z</time>
      </trkpt>
      <trkpt lat="44.69489" lon="6.90747">
        <ele>2879.78</ele>
        <time>2017-01-07T13:14:27Z</time>
      </trkpt>
      <trkpt lat="44.69483" lon="6.90721">
        <ele>2875.65</ele>
        <time>2017-01-07T13:14:31Z</time>
      </trkpt>
      <trkpt lat="44.69472" lon="6.90697">
        <ele>2868.28</ele>
        <time>2017-01-07T13:14:36Z</time>
      </trkpt>
      <trkpt lat="44.69465" lon="6.90672">
        <ele>2860.04</ele>
        <time>2017-01-07T13:15:18Z</time>
      </trkpt>
      <trkpt lat="44.69445" lon="6.90669">
        <ele>2851.37</ele>
        <time>2017-01-07T13:15:24Z</time>
      </trkpt>
      <trkpt lat="44.69424" lon="6.90666">
        <ele>2841.84</ele>
        <time>2017-01-07T13:15:31Z</time>
      </trkpt>
      <trkpt lat="44.6941" lon="6.90683">
        <ele>2836.09</ele>
        <time>2017-01-07T13:15:35Z</time>
      </trkpt>
      <trkpt lat="44.69394" lon="6.90671">
        <ele>2832.48</ele>
        <time>2017-01-07T13:15:40Z</time>
      </trkpt>
      <trkpt lat="44.69375" lon="6.90665">
        <ele>2823.13</ele>
        <time>2017-01-07T13:15:46Z</time>
      </trkpt>
      <trkpt lat="44.69356" lon="6.90653">
        <ele>2818.74</ele>
        <time>2017-01-07T13:15:50Z</time>
      </trkpt>
      <trkpt lat="44.69336" lon="6.9064">
        <ele>2812.87</ele>
        <time>2017-01-07T13:15:54Z</time>
      </trkpt>
      <trkpt lat="44.69319" lon="6.90628">
        <ele>2805.22</ele>
        <time>2017-01-07T13:15:58Z</time>
      </trkpt>
      <trkpt lat="44.69306" lon="6.90611">
        <ele>2797.66</ele>
        <time>2017-01-07T13:16:04Z</time>
      </trkpt>
      <trkpt lat="44.69296" lon="6.90587">
        <ele>2787.94</ele>
        <time>2017-01-07T13:17:33Z</time>
      </trkpt>
      <trkpt lat="44.69277" lon="6.90601">
        <ele>2779.89</ele>
        <time>2017-01-07T13:17:38Z</time>
      </trkpt>
      <trkpt lat="44.69256" lon="6.90594">
        <ele>2776.68</ele>
        <time>2017-01-07T13:17:43Z</time>
      </trkpt>
      <trkpt lat="44.69237" lon="6.9059">
        <ele>2770.7</ele>
        <time>2017-01-07T13:17:47Z</time>
      </trkpt>
      <trkpt lat="44.69223" lon="6.90569">
        <ele>2767.7</ele>
        <time>2017-01-07T13:17:51Z</time>
      </trkpt>
      <trkpt lat="44.69214" lon="6.90543">
        <ele>2762.92</ele>
        <time>2017-01-07T13:17:56Z</time>
      </trkpt>
      <trkpt lat="44.69204" lon="6.90514">
        <ele>2760.65</ele>
        <time>2017-01-07T13:18:01Z</time>
      </trkpt>
      <trkpt lat="44.69197" lon="6.90491">
        <ele>2754.87</ele>
        <time>2017-01-07T13:18:05Z</time>
      </trkpt>
      <trkpt lat="44.69186" lon="6.90468">
        <ele>2751.7</ele>
        <time>2017-01-07T13:18:09Z</time>
      </trkpt>
      <trkpt lat="44.69166" lon="6.90455">
        <ele>2740.09</ele>
        <time>2017-01-07T13:18:31Z</time>
      </trkpt>
      <trkpt lat="44.6915" lon="6.90433">
        <ele>2733.9</ele>
        <time>2017-01-07T13:18:35Z</time>
      </trkpt>
      <trkpt lat="44.69134" lon="6.90416">
        <ele>2724.11</ele>
        <time>2017-01-07T13:18:40Z</time>
      </trkpt>
      <trkpt lat="44.69121" lon="6.90393">
        <ele>2715.7</ele>
        <time>2017-01-07T13:18:45Z</time>
      </trkpt>
      <trkpt lat="44.69111" lon="6.90369">
        <ele>2710.14</ele>
        <time>2017-01-07T13:18:54Z</time>
      </trkpt>
      <trkpt lat="44.69095" lon="6.90352">
        <ele>2699.9</ele>
        <time>2017-01-07T13:19:00Z</time>
      </trkpt>
      <trkpt lat="44.69101" lon="6.90322">
        <ele>2685.1</ele>
        <time>2017-01-07T13:20:16Z</time>
      </trkpt>
      <trkpt lat="44.69083" lon="6.90309">
        <ele>2678.55</ele>
        <time>2017-01-07T13:20:21Z</time>
      </trkpt>
      <trkpt lat="44.69077" lon="6.90281">
        <ele>2674.53</ele>
        <time>2017-01-07T13:20:26Z</time>
      </trkpt>
      <trkpt lat="44.69063" lon="6.90261">
        <ele>2670.03</ele>
        <time>2017-01-07T13:20:32Z</time>
      </trkpt>
      <trkpt lat="44.69054" lon="6.90232">
        <ele>2665.25</ele>
        <time>2017-01-07T13:20:37Z</time>
      </trkpt>
      <trkpt lat="44.69041" lon="6.9021">
        <ele>2660.06</ele>
        <time>2017-01-07T13:20:42Z</time>
      </trkpt>
      <trkpt lat="44.69026" lon="6.90192">
        <ele>2653.86</ele>
        <time>2017-01-07T13:20:47Z</time>
      </trkpt>
      <trkpt lat="44.69009" lon="6.90175">
        <ele>2641.13</ele>
        <time>2017-01-07T13:20:53Z</time>
      </trkpt>
      <trkpt lat="44.68991" lon="6.90171">
        <ele>2633.16</ele>
        <time>2017-01-07T13:20:58Z</time>
      </trkpt>
      <trkpt lat="44.68969" lon="6.90162">
        <ele>2628.47</ele>
        <time>2017-01-07T13:21:03Z</time>
      </trkpt>
      <trkpt lat="44.68964" lon="6.90138">
        <ele>2617.14</ele>
        <time>2017-01-07T13:25:13Z</time>
      </trkpt>
      <trkpt lat="44.68951" lon="6.90114">
        <ele>2609.26</ele>
        <time>2017-01-07T13:25:19Z</time>
      </trkpt>
      <trkpt lat="44.6894" lon="6.90093">
        <ele>2607.66</ele>
        <time>2017-01-07T13:25:23Z</time>
      </trkpt>
      <trkpt lat="44.68934" lon="6.90069">
        <ele>2602.74</ele>
        <time>2017-01-07T13:25:27Z</time>
      </trkpt>
      <trkpt lat="44.68924" lon="6.90046">
        <ele>2597.89</ele>
        <time>2017-01-07T13:25:32Z</time>
      </trkpt>
      <trkpt lat="44.68909" lon="6.90062">
        <ele>2577.97</ele>
        <time>2017-01-07T13:26:32Z</time>
      </trkpt>
      <trkpt lat="44.6889" lon="6.9006">
        <ele>2570.94</ele>
        <time>2017-01-07T13:26:38Z</time>
      </trkpt>
      <trkpt lat="44.68877" lon="6.90035">
        <ele>2564.9</ele>
        <time>2017-01-07T13:26:43Z</time>
      </trkpt>
      <trkpt lat="44.68868" lon="6.90012">
        <ele>2559.54</ele>
        <time>2017-01-07T13:26:47Z</time>
      </trkpt>
      <trkpt lat="44.68857" lon="6.89992">
        <ele>2556.12</ele>
        <time>2017-01-07T13:26:52Z</time>
      </trkpt>
      <trkpt lat="44.68855" lon="6.89965">
        <ele>2542.13</ele>
        <time>2017-01-07T13:28:13Z</time>
      </trkpt>
      <trkpt lat="44.68849" lon="6.89939">
        <ele>2532.58</ele>
        <time>2017-01-07T13:28:20Z</time>
      </trkpt>
      <trkpt lat="44.68827" lon="6.8993">
        <ele>2527.44</ele>
        <time>2017-01-07T13:28:29Z</time>
      </trkpt>
      <trkpt lat="44.68815" lon="6.89908">
        <ele>2525.65</ele>
        <time>2017-01-07T13:28:34Z</time>
      </trkpt>
      <trkpt lat="44.68811" lon="6.8988">
        <ele>2520.33</ele>
        <time>2017-01-07T13:28:39Z</time>
      </trkpt>
      <trkpt lat="44.68804" lon="6.89854">
        <ele>2512.14</ele>
        <time>2017-01-07T13:28:45Z</time>
      </trkpt>
      <trkpt lat="44.68784" lon="6.89859">
        <ele>2507.58</ele>
        <time>2017-01-07T13:28:48Z</time>
      </trkpt>
      <trkpt lat="44.68777" lon="6.89836">
        <ele>2506.68</ele>
        <time>2017-01-07T13:28:52Z</time>
      </trkpt>
      <trkpt lat="44.68758" lon="6.89839">
        <ele>2497.97</ele>
        <time>2017-01-07T13:28:57Z</time>
      </trkpt>
      <trkpt lat="44.68749" lon="6.89817">
        <ele>2487.38</ele>
        <time>2017-01-07T13:29:02Z</time>
      </trkpt>
      <trkpt lat="44.68753" lon="6.89791">
        <ele>2478.92</ele>
        <time>2017-01-07T13:31:04Z</time>
      </trkpt>
      <trkpt lat="44.68738" lon="6.89774">
        <ele>2471.73</ele>
        <time>2017-01-07T13:31:11Z</time>
      </trkpt>
      <trkpt lat="44.6873" lon="6.89745">
        <ele>2464.67</ele>
        <time>2017-01-07T13:31:18Z</time>
      </trkpt>
      <trkpt lat="44.68732" lon="6.89719">
        <ele>2448.05</ele>
        <time>2017-01-07T13:31:41Z</time>
      </trkpt>
      <trkpt lat="44.68728" lon="6.89689">
        <ele>2441.72</ele>
        <time>2017-01-07T13:32:13Z</time>
      </trkpt>
      <trkpt lat="44.6871" lon="6.89676">
        <ele>2433.86</ele>
        <time>2017-01-07T13:32:22Z</time>
      </trkpt>
      <trkpt lat="44.68695" lon="6.89658">
        <ele>2428.05</ele>
        <time>2017-01-07T13:32:28Z</time>
      </trkpt>
      <trkpt lat="44.68677" lon="6.89647">
        <ele>2423.69</ele>
        <time>2017-01-07T13:32:33Z</time>
      </trkpt>
      <trkpt lat="44.6868" lon="6.89618">
        <ele>2416.13</ele>
        <time>2017-01-07T13:32:39Z</time>
      </trkpt>
      <trkpt lat="44.68686" lon="6.89592">
        <ele>2412.24</ele>
        <time>2017-01-07T13:32:44Z</time>
      </trkpt>
      <trkpt lat="44.68676" lon="6.89568">
        <ele>2407.08</ele>
        <time>2017-01-07T13:32:50Z</time>
      </trkpt>
      <trkpt lat="44.68669" lon="6.8954">
        <ele>2400.88</ele>
        <time>2017-01-07T13:33:58Z</time>
      </trkpt>
      <trkpt lat="44.68662" lon="6.89514">
        <ele>2387.73</ele>
        <time>2017-01-07T13:34:06Z</time>
      </trkpt>
      <trkpt lat="44.68677" lon="6.89498">
        <ele>2379.16</ele>
        <time>2017-01-07T13:34:11Z</time>
      </trkpt>
      <trkpt lat="44.6866" lon="6.8949">
        <ele>2365.02</ele>
        <time>2017-01-07T13:34:28Z</time>
      </trkpt>
      <trkpt lat="44.68645" lon="6.89475">
        <ele>2365.6</ele>
        <time>2017-01-07T13:34:34Z</time>
      </trkpt>
      <trkpt lat="44.68629" lon="6.89462">
        <ele>2363.58</ele>
        <time>2017-01-07T13:34:39Z</time>
      </trkpt>
      <trkpt lat="44.6862" lon="6.8944">
        <ele>2354.68</ele>
        <time>2017-01-07T13:36:55Z</time>
      </trkpt>
      <trkpt lat="44.68602" lon="6.89434">
        <ele>2351.84</ele>
        <time>2017-01-07T13:37:07Z</time>
      </trkpt>
      <trkpt lat="44.68589" lon="6.89412">
        <ele>2346.65</ele>
        <time>2017-01-07T13:38:13Z</time>
      </trkpt>
      <trkpt lat="44.68602" lon="6.89392">
        <ele>2339.18</ele>
        <time>2017-01-07T13:38:52Z</time>
      </trkpt>
      <trkpt lat="44.68598" lon="6.89366">
        <ele>2330.78</ele>
        <time>2017-01-07T13:38:57Z</time>
      </trkpt>
      <trkpt lat="44.68619" lon="6.89351">
        <ele>2322.26</ele>
        <time>2017-01-07T13:39:02Z</time>
      </trkpt>
      <trkpt lat="44.68641" lon="6.89333">
        <ele>2318.04</ele>
        <time>2017-01-07T13:39:06Z</time>
      </trkpt>
      <trkpt lat="44.68661" lon="6.89323">
        <ele>2315.04</ele>
        <time>2017-01-07T13:39:11Z</time>
      </trkpt>
      <trkpt lat="44.68677" lon="6.89311">
        <ele>2312.85</ele>
        <time>2017-01-07T13:39:16Z</time>
      </trkpt>
      <trkpt lat="44.68659" lon="6.89308">
        <ele>2311.68</ele>
        <time>2017-01-07T14:01:46Z</time>
      </trkpt>
      <trkpt lat="44.6864" lon="6.893">
        <ele>2305.73</ele>
        <time>2017-01-07T14:01:51Z</time>
      </trkpt>
      <trkpt lat="44.68622" lon="6.89289">
        <ele>2303.88</ele>
        <time>2017-01-07T14:01:56Z</time>
      </trkpt>
      <trkpt lat="44.68601" lon="6.89281">
        <ele>2302.88</ele>
        <time>2017-01-07T14:02:02Z</time>
      </trkpt>
      <trkpt lat="44.68583" lon="6.89269">
        <ele>2299.68</ele>
        <time>2017-01-07T14:02:07Z</time>
      </trkpt>
      <trkpt lat="44.68569" lon="6.89248">
        <ele>2293.9</ele>
        <time>2017-01-07T14:02:13Z</time>
      </trkpt>
      <trkpt lat="44.68563" lon="6.89219">
        <ele>2291.84</ele>
        <time>2017-01-07T14:02:17Z</time>
      </trkpt>
      <trkpt lat="44.68553" lon="6.8919">
        <ele>2288.49</ele>
        <time>2017-01-07T14:02:22Z</time>
      </trkpt>
      <trkpt lat="44.68535" lon="6.89206">
        <ele>2286.68</ele>
        <time>2017-01-07T14:02:27Z</time>
      </trkpt>
      <trkpt lat="44.68517" lon="6.89201">
        <ele>2282.86</ele>
        <time>2017-01-07T14:02:31Z</time>
      </trkpt>
      <trkpt lat="44.68512" lon="6.89176">
        <ele>2275.69</ele>
        <time>2017-01-07T14:03:44Z</time>
      </trkpt>
      <trkpt lat="44.68496" lon="6.89165">
        <ele>2269.77</ele>
        <time>2017-01-07T14:04:44Z</time>
      </trkpt>
      <trkpt lat="44.6848" lon="6.8915">
        <ele>2264.04</ele>
        <time>2017-01-07T14:04:51Z</time>
      </trkpt>
      <trkpt lat="44.68473" lon="6.89122">
        <ele>2261.68</ele>
        <time>2017-01-07T14:04:57Z</time>
      </trkpt>
      <trkpt lat="44.68456" lon="6.89114">
        <ele>2254.66</ele>
        <time>2017-01-07T14:05:03Z</time>
      </trkpt>
      <trkpt lat="44.68438" lon="6.89119">
        <ele>2254.61</ele>
        <time>2017-01-07T14:05:08Z</time>
      </trkpt>
      <trkpt lat="44.68425" lon="6.89101">
        <ele>2247.88</ele>
        <time>2017-01-07T14:05:14Z</time>
      </trkpt>
      <trkpt lat="44.68408" lon="6.89086">
        <ele>2244.04</ele>
        <time>2017-01-07T14:05:19Z</time>
      </trkpt>
      <trkpt lat="44.68403" lon="6.89059">
        <ele>2240.65</ele>
        <time>2017-01-07T14:05:24Z</time>
      </trkpt>
      <trkpt lat="44.68386" lon="6.89049">
        <ele>2234.09</ele>
        <time>2017-01-07T14:05:29Z</time>
      </trkpt>
      <trkpt lat="44.68378" lon="6.89023">
        <ele>2227.93</ele>
        <time>2017-01-07T14:05:35Z</time>
      </trkpt>
      <trkpt lat="44.68373" lon="6.88997">
        <ele>2221.1</ele>
        <time>2017-01-07T14:05:40Z</time>
      </trkpt>
      <trkpt lat="44.68356" lon="6.88987">
        <ele>2213.74</ele>
        <time>2017-01-07T14:05:45Z</time>
      </trkpt>
      <trkpt lat="44.6835" lon="6.88962">
        <ele>2207.86</ele>
        <time>2017-01-07T14:05:50Z</time>
      </trkpt>
      <trkpt lat="44.68338" lon="6.88939">
        <ele>2203.65</ele>
        <time>2017-01-07T14:05:56Z</time>
      </trkpt>
      <trkpt lat="44.68326" lon="6.88914">
        <ele>2199.7</ele>
        <time>2017-01-07T14:06:00Z</time>
      </trkpt>
      <trkpt lat="44.68312" lon="6.88895">
        <ele>2196.68</ele>
        <time>2017-01-07T14:06:04Z</time>
      </trkpt>
      <trkpt lat="44.68298" lon="6.88877">
        <ele>2195.68</ele>
        <time>2017-01-07T14:06:08Z</time>
      </trkpt>
      <trkpt lat="44.68308" lon="6.88856">
        <ele>2187.84</ele>
        <time>2017-01-07T14:09:54Z</time>
      </trkpt>
      <trkpt lat="44.68323" lon="6.88839">
        <ele>2185.84</ele>
        <time>2017-01-07T14:10:05Z</time>
      </trkpt>
      <trkpt lat="44.68337" lon="6.88821">
        <ele>2181.86</ele>
        <time>2017-01-07T14:10:12Z</time>
      </trkpt>
      <trkpt lat="44.68326" lon="6.88798">
        <ele>2174.14</ele>
        <time>2017-01-07T14:10:19Z</time>
      </trkpt>
      <trkpt lat="44.68306" lon="6.88794">
        <ele>2173.64</ele>
        <time>2017-01-07T14:10:23Z</time>
      </trkpt>
      <trkpt lat="44.68305" lon="6.88768">
        <ele>2172.81</ele>
        <time>2017-01-07T14:10:29Z</time>
      </trkpt>
      <trkpt lat="44.6832" lon="6.88755">
        <ele>2171.45</ele>
        <time>2017-01-07T14:11:11Z</time>
      </trkpt>
      <trkpt lat="44.68337" lon="6.88739">
        <ele>2168.04</ele>
        <time>2017-01-07T14:11:18Z</time>
      </trkpt>
      <trkpt lat="44.68357" lon="6.88726">
        <ele>2163.06</ele>
        <time>2017-01-07T14:11:23Z</time>
      </trkpt>
      <trkpt lat="44.68375" lon="6.88711">
        <ele>2161.68</ele>
        <time>2017-01-07T14:11:28Z</time>
      </trkpt>
      <trkpt lat="44.68394" lon="6.88703">
        <ele>2161.68</ele>
        <time>2017-01-07T14:11:32Z</time>
      </trkpt>
      <trkpt lat="44.68411" lon="6.8869">
        <ele>2160.84</ele>
        <time>2017-01-07T14:11:36Z</time>
      </trkpt>
      <trkpt lat="44.68426" lon="6.88668">
        <ele>2159.71</ele>
        <time>2017-01-07T14:11:41Z</time>
      </trkpt>
      <trkpt lat="44.68442" lon="6.88648">
        <ele>2159.64</ele>
        <time>2017-01-07T14:11:45Z</time>
      </trkpt>
      <trkpt lat="44.68461" lon="6.88632">
        <ele>2158.64</ele>
        <time>2017-01-07T14:11:49Z</time>
      </trkpt>
      <trkpt lat="44.6848" lon="6.88627">
        <ele>2158.8</ele>
        <time>2017-01-07T14:11:52Z</time>
      </trkpt>
      <trkpt lat="44.68497" lon="6.88618">
        <ele>2160.4</ele>
        <time>2017-01-07T14:11:55Z</time>
      </trkpt>
      <trkpt lat="44.68512" lon="6.88601">
        <ele>2156.44</ele>
        <time>2017-01-07T14:11:59Z</time>
      </trkpt>
      <trkpt lat="44.68525" lon="6.88583">
        <ele>2153.01</ele>
        <time>2017-01-07T14:12:03Z</time>
      </trkpt>
      <trkpt lat="44.68542" lon="6.88563">
        <ele>2151.49</ele>
        <time>2017-01-07T14:12:07Z</time>
      </trkpt>
      <trkpt lat="44.6856" lon="6.88546">
        <ele>2149.68</ele>
        <time>2017-01-07T14:12:11Z</time>
      </trkpt>
      <trkpt lat="44.68582" lon="6.88542">
        <ele>2149.83</ele>
        <time>2017-01-07T14:12:15Z</time>
      </trkpt>
      <trkpt lat="44.68605" lon="6.88539">
        <ele>2147.68</ele>
        <time>2017-01-07T14:12:19Z</time>
      </trkpt>
      <trkpt lat="44.68627" lon="6.88536">
        <ele>2146.55</ele>
        <time>2017-01-07T14:12:22Z</time>
      </trkpt>
      <trkpt lat="44.68648" lon="6.88525">
        <ele>2145.65</ele>
        <time>2017-01-07T14:12:27Z</time>
      </trkpt>
      <trkpt lat="44.68669" lon="6.8851">
        <ele>2145.64</ele>
        <time>2017-01-07T14:12:32Z</time>
      </trkpt>
      <trkpt lat="44.68684" lon="6.88489">
        <ele>2145.63</ele>
        <time>2017-01-07T14:12:37Z</time>
      </trkpt>
      <trkpt lat="44.68699" lon="6.88474">
        <ele>2147.4</ele>
        <time>2017-01-07T14:12:40Z</time>
      </trkpt>
      <trkpt lat="44.68717" lon="6.88458">
        <ele>2143.64</ele>
        <time>2017-01-07T14:12:45Z</time>
      </trkpt>
      <trkpt lat="44.68735" lon="6.88442">
        <ele>2143.64</ele>
        <time>2017-01-07T14:12:49Z</time>
      </trkpt>
      <trkpt lat="44.68756" lon="6.88431">
        <ele>2137.06</ele>
        <time>2017-01-07T14:12:54Z</time>
      </trkpt>
      <trkpt lat="44.68775" lon="6.88435">
        <ele>2133.65</ele>
        <time>2017-01-07T14:12:58Z</time>
      </trkpt>
      <trkpt lat="44.68793" lon="6.88442">
        <ele>2133.61</ele>
        <time>2017-01-07T14:13:02Z</time>
      </trkpt>
      <trkpt lat="44.68813" lon="6.88435">
        <ele>2130.85</ele>
        <time>2017-01-07T14:13:07Z</time>
      </trkpt>
      <trkpt lat="44.68831" lon="6.88428">
        <ele>2130.52</ele>
        <time>2017-01-07T14:13:11Z</time>
      </trkpt>
      <trkpt lat="44.68849" lon="6.88423">
        <ele>2129.64</ele>
        <time>2017-01-07T14:13:15Z</time>
      </trkpt>
      <trkpt lat="44.68869" lon="6.88413">
        <ele>2129.84</ele>
        <time>2017-01-07T14:13:20Z</time>
      </trkpt>
      <trkpt lat="44.68886" lon="6.88402">
        <ele>2125.09</ele>
        <time>2017-01-07T14:13:27Z</time>
      </trkpt>
      <trkpt lat="44.68903" lon="6.8839">
        <ele>2121.7</ele>
        <time>2017-01-07T14:13:35Z</time>
      </trkpt>
      <trkpt lat="44.68918" lon="6.88375">
        <ele>2121.64</ele>
        <time>2017-01-07T14:13:41Z</time>
      </trkpt>
      <trkpt lat="44.68935" lon="6.88355">
        <ele>2120.63</ele>
        <time>2017-01-07T14:13:46Z</time>
      </trkpt>
      <trkpt lat="44.68954" lon="6.8834">
        <ele>2119.69</ele>
        <time>2017-01-07T14:13:51Z</time>
      </trkpt>
      <trkpt lat="44.68972" lon="6.88337">
        <ele>2120.44</ele>
        <time>2017-01-07T14:13:54Z</time>
      </trkpt>
      <trkpt lat="44.68993" lon="6.88337">
        <ele>2121.47</ele>
        <time>2017-01-07T14:13:57Z</time>
      </trkpt>
      <trkpt lat="44.69011" lon="6.88319">
        <ele>2123.44</ele>
        <time>2017-01-07T14:14:01Z</time>
      </trkpt>
      <trkpt lat="44.69022" lon="6.88299">
        <ele>2121.85</ele>
        <time>2017-01-07T14:14:04Z</time>
      </trkpt>
      <trkpt lat="44.69039" lon="6.88278">
        <ele>2122.82</ele>
        <time>2017-01-07T14:14:08Z</time>
      </trkpt>
      <trkpt lat="44.69056" lon="6.88259">
        <ele>2119.93</ele>
        <time>2017-01-07T14:14:12Z</time>
      </trkpt>
      <trkpt lat="44.69066" lon="6.88233">
        <ele>2117.73</ele>
        <time>2017-01-07T14:14:17Z</time>
      </trkpt>
      <trkpt lat="44.69069" lon="6.88206">
        <ele>2114.89</ele>
        <time>2017-01-07T14:14:21Z</time>
      </trkpt>
      <trkpt lat="44.69064" lon="6.88179">
        <ele>2102.9</ele>
        <time>2017-01-07T14:14:25Z</time>
      </trkpt>
      <trkpt lat="44.69066" lon="6.88152">
        <ele>2096.46</ele>
        <time>2017-01-07T14:14:29Z</time>
      </trkpt>
      <trkpt lat="44.6907" lon="6.88125">
        <ele>2094.68</ele>
        <time>2017-01-07T14:14:33Z</time>
      </trkpt>
      <trkpt lat="44.69076" lon="6.88098">
        <ele>2089.88</ele>
        <time>2017-01-07T14:14:39Z</time>
      </trkpt>
      <trkpt lat="44.69086" lon="6.88071">
        <ele>2089.58</ele>
        <time>2017-01-07T14:14:45Z</time>
      </trkpt>
      <trkpt lat="44.69095" lon="6.88046">
        <ele>2087.69</ele>
        <time>2017-01-07T14:14:50Z</time>
      </trkpt>
      <trkpt lat="44.69104" lon="6.8802">
        <ele>2085.64</ele>
        <time>2017-01-07T14:14:56Z</time>
      </trkpt>
      <trkpt lat="44.69113" lon="6.87994">
        <ele>2083.84</ele>
        <time>2017-01-07T14:15:00Z</time>
      </trkpt>
      <trkpt lat="44.69124" lon="6.87975">
        <ele>2081.45</ele>
        <time>2017-01-07T14:15:05Z</time>
      </trkpt>
      <trkpt lat="44.69141" lon="6.87962">
        <ele>2081.44</ele>
        <time>2017-01-07T14:15:36Z</time>
      </trkpt>
      <trkpt lat="44.69151" lon="6.87939">
        <ele>2075.89</ele>
        <time>2017-01-07T14:15:42Z</time>
      </trkpt>
      <trkpt lat="44.69167" lon="6.87925">
        <ele>2071.85</ele>
        <time>2017-01-07T14:15:49Z</time>
      </trkpt>
      <trkpt lat="44.69185" lon="6.87912">
        <ele>2069.84</ele>
        <time>2017-01-07T14:15:54Z</time>
      </trkpt>
      <trkpt lat="44.69201" lon="6.87891">
        <ele>2069.64</ele>
        <time>2017-01-07T14:15:59Z</time>
      </trkpt>
      <trkpt lat="44.69215" lon="6.87866">
        <ele>2067.88</ele>
        <time>2017-01-07T14:16:04Z</time>
      </trkpt>
      <trkpt lat="44.69227" lon="6.87847">
        <ele>2072.12</ele>
        <time>2017-01-07T14:16:07Z</time>
      </trkpt>
      <trkpt lat="44.6924" lon="6.87824">
        <ele>2066.67</ele>
        <time>2017-01-07T14:16:14Z</time>
      </trkpt>
      <trkpt lat="44.69259" lon="6.87813">
        <ele>2065.65</ele>
        <time>2017-01-07T14:16:18Z</time>
      </trkpt>
      <trkpt lat="44.69282" lon="6.87806">
        <ele>2063.66</ele>
        <time>2017-01-07T14:16:22Z</time>
      </trkpt>
      <trkpt lat="44.69304" lon="6.87808">
        <ele>2059.73</ele>
        <time>2017-01-07T14:16:26Z</time>
      </trkpt>
      <trkpt lat="44.69324" lon="6.87808">
        <ele>2059.67</ele>
        <time>2017-01-07T14:16:30Z</time>
      </trkpt>
      <trkpt lat="44.69342" lon="6.87808">
        <ele>2059.64</ele>
        <time>2017-01-07T14:16:34Z</time>
      </trkpt>
      <trkpt lat="44.69362" lon="6.87813">
        <ele>2058.84</ele>
        <time>2017-01-07T14:16:38Z</time>
      </trkpt>
      <trkpt lat="44.69378" lon="6.87794">
        <ele>2057.84</ele>
        <time>2017-01-07T14:16:42Z</time>
      </trkpt>
      <trkpt lat="44.6938" lon="6.87764">
        <ele>2055.64</ele>
        <time>2017-01-07T14:16:46Z</time>
      </trkpt>
      <trkpt lat="44.69376" lon="6.87738">
        <ele>2053.84</ele>
        <time>2017-01-07T14:16:50Z</time>
      </trkpt>
      <trkpt lat="44.69375" lon="6.87711">
        <ele>2051.85</ele>
        <time>2017-01-07T14:16:54Z</time>
      </trkpt>
      <trkpt lat="44.69373" lon="6.87681">
        <ele>2049.52</ele>
        <time>2017-01-07T14:16:59Z</time>
      </trkpt>
      <trkpt lat="44.69371" lon="6.87654">
        <ele>2049.4</ele>
        <time>2017-01-07T14:17:03Z</time>
      </trkpt>
      <trkpt lat="44.69379" lon="6.87624">
        <ele>2049.84</ele>
        <time>2017-01-07T14:17:07Z</time>
      </trkpt>
      <trkpt lat="44.69389" lon="6.87598">
        <ele>2042.27</ele>
        <time>2017-01-07T14:17:12Z</time>
      </trkpt>
      <trkpt lat="44.69403" lon="6.87575">
        <ele>2040.85</ele>
        <time>2017-01-07T14:17:17Z</time>
      </trkpt>
      <trkpt lat="44.69415" lon="6.87551">
        <ele>2035.85</ele>
        <time>2017-01-07T14:17:23Z</time>
      </trkpt>
      <trkpt lat="44.6943" lon="6.87531">
        <ele>2036.6</ele>
        <time>2017-01-07T14:17:27Z</time>
      </trkpt>
      <trkpt lat="44.69444" lon="6.8751">
        <ele>2036.44</ele>
        <time>2017-01-07T14:17:31Z</time>
      </trkpt>
      <trkpt lat="44.69458" lon="6.87491">
        <ele>2032.89</ele>
        <time>2017-01-07T14:17:35Z</time>
      </trkpt>
      <trkpt lat="44.69479" lon="6.87474">
        <ele>2033.48</ele>
        <time>2017-01-07T14:17:39Z</time>
      </trkpt>
      <trkpt lat="44.695" lon="6.87465">
        <ele>2032.61</ele>
        <time>2017-01-07T14:17:44Z</time>
      </trkpt>
      <trkpt lat="44.69519" lon="6.87468">
        <ele>2029.88</ele>
        <time>2017-01-07T14:17:48Z</time>
      </trkpt>
      <trkpt lat="44.69534" lon="6.87483">
        <ele>2021.89</ele>
        <time>2017-01-07T14:17:57Z</time>
      </trkpt>
      <trkpt lat="44.69555" lon="6.87487">
        <ele>2019.64</ele>
        <time>2017-01-07T14:18:04Z</time>
      </trkpt>
    </trkseg>
  </trk>
</gpx>